sensor_id;sensor_type;location;lat;lon;timestamp;P1;durP1;ratioP1;P2;durP2;ratioP2
41275;SDS011;27010;47.718;12.912;2022-07-09T00:02:10;3.57;;;2.20;;
41275;SDS011;27010;47.718;12.912;2022-07-09T00:05:13;3.50;;;1.80;;
41275;SDS011;27010;47.718;12.912;2022-07-09T00:08:18;3.30;;;1.80;;
41275;SDS011;27010;47.718;12.912;2022-07-09T00:11:21;4.10;;;2.10;;
41275;SDS011;27010;47.718;12.912;2022-07-09T00:14:23;4.90;;;2.00;;
41275;SDS011;27010;47.718;12.912;2022-07-09T00:17:25;2.37;;;2.17;;
41275;SDS011;27010;47.718;12.912;2022-07-09T00:20:27;4.40;;;2.03;;
41275;SDS011;27010;47.718;12.912;2022-07-09T00:23:29;3.33;;;1.93;;
41275;SDS011;27010;47.718;12.912;2022-07-09T00:26:31;4.53;;;2.10;;
41275;SDS011;27010;47.718;12.912;2022-07-09T00:29:34;5.40;;;2.43;;
41275;SDS011;27010;47.718;12.912;2022-07-09T00:32:36;2.90;;;1.83;;
41275;SDS011;27010;47.718;12.912;2022-07-09T00:35:38;2.27;;;1.70;;
41275;SDS011;27010;47.718;12.912;2022-07-09T00:38:40;5.03;;;1.60;;
41275;SDS011;27010;47.718;12.912;2022-07-09T00:41:42;4.77;;;1.90;;
41275;SDS011;27010;47.718;12.912;2022-07-09T00:44:44;3.40;;;1.27;;
41275;SDS011;27010;47.718;12.912;2022-07-09T00:47:46;1.57;;;1.30;;
41275;SDS011;27010;47.718;12.912;2022-07-09T00:50:48;3.50;;;1.67;;
41275;SDS011;27010;47.718;12.912;2022-07-09T00:53:50;4.43;;;2.10;;
41275;SDS011;27010;47.718;12.912;2022-07-09T00:56:52;3.30;;;1.70;;
41275;SDS011;27010;47.718;12.912;2022-07-09T00:59:55;4.67;;;2.23;;
41275;SDS011;27010;47.718;12.912;2022-07-09T01:02:59;1.70;;;1.57;;
41275;SDS011;27010;47.718;12.912;2022-07-09T01:06:01;3.23;;;1.73;;
41275;SDS011;27010;47.718;12.912;2022-07-09T01:09:03;4.30;;;1.80;;
41275;SDS011;27010;47.718;12.912;2022-07-09T01:12:06;2.70;;;1.50;;
41275;SDS011;27010;47.718;12.912;2022-07-09T01:15:09;4.00;;;2.00;;
41275;SDS011;27010;47.718;12.912;2022-07-09T01:18:11;4.20;;;1.80;;
41275;SDS011;27010;47.718;12.912;2022-07-09T01:21:14;6.43;;;1.90;;
41275;SDS011;27010;47.718;12.912;2022-07-09T01:24:16;4.63;;;1.77;;
41275;SDS011;27010;47.718;12.912;2022-07-09T01:27:18;3.87;;;1.60;;
41275;SDS011;27010;47.718;12.912;2022-07-09T01:30:24;3.00;;;1.73;;
41275;SDS011;27010;47.718;12.912;2022-07-09T01:33:27;8.43;;;2.07;;
41275;SDS011;27010;47.718;12.912;2022-07-09T01:36:29;2.70;;;1.37;;
41275;SDS011;27010;47.718;12.912;2022-07-09T01:39:31;4.77;;;1.83;;
41275;SDS011;27010;47.718;12.912;2022-07-09T01:42:33;2.30;;;1.67;;
41275;SDS011;27010;47.718;12.912;2022-07-09T01:45:35;3.23;;;1.87;;
41275;SDS011;27010;47.718;12.912;2022-07-09T01:48:37;5.80;;;2.00;;
41275;SDS011;27010;47.718;12.912;2022-07-09T01:51:42;4.50;;;1.93;;
41275;SDS011;27010;47.718;12.912;2022-07-09T01:54:45;3.30;;;1.87;;
41275;SDS011;27010;47.718;12.912;2022-07-09T01:57:47;6.93;;;2.00;;
41275;SDS011;27010;47.718;12.912;2022-07-09T02:00:48;4.97;;;2.00;;
41275;SDS011;27010;47.718;12.912;2022-07-09T02:03:51;3.47;;;1.97;;
41275;SDS011;27010;47.718;12.912;2022-07-09T02:06:53;3.30;;;1.80;;
41275;SDS011;27010;47.718;12.912;2022-07-09T02:09:55;2.87;;;1.83;;
41275;SDS011;27010;47.718;12.912;2022-07-09T02:12:57;6.27;;;1.87;;
41275;SDS011;27010;47.718;12.912;2022-07-09T02:15:59;3.90;;;1.90;;
41275;SDS011;27010;47.718;12.912;2022-07-09T02:19:03;4.60;;;1.97;;
41275;SDS011;27010;47.718;12.912;2022-07-09T02:22:05;3.13;;;2.00;;
41275;SDS011;27010;47.718;12.912;2022-07-09T02:25:07;3.63;;;2.10;;
41275;SDS011;27010;47.718;12.912;2022-07-09T02:28:09;3.13;;;1.70;;
41275;SDS011;27010;47.718;12.912;2022-07-09T02:31:11;5.57;;;2.10;;
41275;SDS011;27010;47.718;12.912;2022-07-09T02:34:13;3.47;;;1.63;;
41275;SDS011;27010;47.718;12.912;2022-07-09T02:37:15;2.27;;;1.90;;
41275;SDS011;27010;47.718;12.912;2022-07-09T02:40:17;4.30;;;2.10;;
41275;SDS011;27010;47.718;12.912;2022-07-09T02:43:19;2.10;;;1.60;;
41275;SDS011;27010;47.718;12.912;2022-07-09T02:46:21;1.77;;;1.60;;
41275;SDS011;27010;47.718;12.912;2022-07-09T02:49:23;4.03;;;1.73;;
41275;SDS011;27010;47.718;12.912;2022-07-09T02:52:25;3.30;;;1.87;;
41275;SDS011;27010;47.718;12.912;2022-07-09T02:55:27;3.63;;;1.77;;
41275;SDS011;27010;47.718;12.912;2022-07-09T02:58:30;3.20;;;1.70;;
41275;SDS011;27010;47.718;12.912;2022-07-09T03:01:33;4.57;;;1.40;;
41275;SDS011;27010;47.718;12.912;2022-07-09T03:04:35;3.67;;;1.63;;
41275;SDS011;27010;47.718;12.912;2022-07-09T03:07:37;10.67;;;1.77;;
41275;SDS011;27010;47.718;12.912;2022-07-09T03:10:39;4.27;;;1.80;;
41275;SDS011;27010;47.718;12.912;2022-07-09T03:13:42;4.17;;;1.43;;
41275;SDS011;27010;47.718;12.912;2022-07-09T03:16:44;3.27;;;1.53;;
41275;SDS011;27010;47.718;12.912;2022-07-09T03:19:46;3.00;;;1.43;;
41275;SDS011;27010;47.718;12.912;2022-07-09T03:22:48;5.93;;;1.77;;
41275;SDS011;27010;47.718;12.912;2022-07-09T03:25:49;3.10;;;1.50;;
41275;SDS011;27010;47.718;12.912;2022-07-09T03:28:51;3.27;;;2.00;;
41275;SDS011;27010;47.718;12.912;2022-07-09T03:31:53;3.40;;;1.70;;
41275;SDS011;27010;47.718;12.912;2022-07-09T03:34:55;5.20;;;1.50;;
41275;SDS011;27010;47.718;12.912;2022-07-09T03:37:57;5.50;;;1.70;;
41275;SDS011;27010;47.718;12.912;2022-07-09T03:40:59;2.97;;;1.70;;
41275;SDS011;27010;47.718;12.912;2022-07-09T03:44:01;2.53;;;1.63;;
41275;SDS011;27010;47.718;12.912;2022-07-09T03:47:04;2.77;;;1.60;;
41275;SDS011;27010;47.718;12.912;2022-07-09T03:50:06;4.23;;;1.70;;
41275;SDS011;27010;47.718;12.912;2022-07-09T03:53:09;7.90;;;1.70;;
41275;SDS011;27010;47.718;12.912;2022-07-09T03:56:11;2.73;;;1.80;;
41275;SDS011;27010;47.718;12.912;2022-07-09T03:59:13;3.37;;;1.67;;
41275;SDS011;27010;47.718;12.912;2022-07-09T04:02:15;4.07;;;1.77;;
41275;SDS011;27010;47.718;12.912;2022-07-09T04:05:17;7.80;;;2.13;;
41275;SDS011;27010;47.718;12.912;2022-07-09T04:08:19;2.17;;;1.60;;
41275;SDS011;27010;47.718;12.912;2022-07-09T04:11:22;3.00;;;1.90;;
41275;SDS011;27010;47.718;12.912;2022-07-09T04:14:24;4.87;;;1.90;;
41275;SDS011;27010;47.718;12.912;2022-07-09T04:17:26;5.00;;;2.13;;
41275;SDS011;27010;47.718;12.912;2022-07-09T04:20:28;7.57;;;2.07;;
41275;SDS011;27010;47.718;12.912;2022-07-09T04:23:30;2.53;;;1.63;;
41275;SDS011;27010;47.718;12.912;2022-07-09T04:26:32;3.77;;;2.03;;
41275;SDS011;27010;47.718;12.912;2022-07-09T04:29:34;3.80;;;1.60;;
41275;SDS011;27010;47.718;12.912;2022-07-09T04:32:36;6.70;;;1.90;;
41275;SDS011;27010;47.718;12.912;2022-07-09T04:35:39;3.00;;;1.50;;
41275;SDS011;27010;47.718;12.912;2022-07-09T04:38:41;6.00;;;1.97;;
41275;SDS011;27010;47.718;12.912;2022-07-09T04:41:43;5.00;;;3.10;;
41275;SDS011;27010;47.718;12.912;2022-07-09T04:44:44;3.90;;;2.60;;
41275;SDS011;27010;47.718;12.912;2022-07-09T04:47:46;4.97;;;2.63;;
41275;SDS011;27010;47.718;12.912;2022-07-09T04:50:48;4.90;;;2.07;;
41275;SDS011;27010;47.718;12.912;2022-07-09T04:53:51;3.07;;;2.23;;
41275;SDS011;27010;47.718;12.912;2022-07-09T04:56:53;5.20;;;1.90;;
41275;SDS011;27010;47.718;12.912;2022-07-09T04:59:58;2.20;;;2.00;;
41275;SDS011;27010;47.718;12.912;2022-07-09T05:03:01;3.73;;;1.73;;
41275;SDS011;27010;47.718;12.912;2022-07-09T05:06:03;2.10;;;1.40;;
41275;SDS011;27010;47.718;12.912;2022-07-09T05:09:05;2.97;;;1.70;;
41275;SDS011;27010;47.718;12.912;2022-07-09T05:12:08;4.87;;;1.73;;
41275;SDS011;27010;47.718;12.912;2022-07-09T05:15:12;3.10;;;1.67;;
41275;SDS011;27010;47.718;12.912;2022-07-09T05:18:15;3.47;;;1.80;;
41275;SDS011;27010;47.718;12.912;2022-07-09T05:21:17;2.37;;;1.70;;
41275;SDS011;27010;47.718;12.912;2022-07-09T05:24:19;1.90;;;1.37;;
41275;SDS011;27010;47.718;12.912;2022-07-09T05:27:21;8.20;;;2.07;;
41275;SDS011;27010;47.718;12.912;2022-07-09T05:30:23;2.40;;;1.43;;
41275;SDS011;27010;47.718;12.912;2022-07-09T05:33:25;2.70;;;1.60;;
41275;SDS011;27010;47.718;12.912;2022-07-09T05:36:28;4.20;;;1.60;;
41275;SDS011;27010;47.718;12.912;2022-07-09T05:39:30;3.60;;;1.70;;
41275;SDS011;27010;47.718;12.912;2022-07-09T05:42:32;5.10;;;1.77;;
41275;SDS011;27010;47.718;12.912;2022-07-09T05:45:34;4.67;;;1.60;;
41275;SDS011;27010;47.718;12.912;2022-07-09T05:48:36;2.97;;;1.57;;
41275;SDS011;27010;47.718;12.912;2022-07-09T05:51:39;2.50;;;1.40;;
41275;SDS011;27010;47.718;12.912;2022-07-09T05:54:42;4.90;;;1.60;;
41275;SDS011;27010;47.718;12.912;2022-07-09T05:57:44;3.00;;;1.50;;
41275;SDS011;27010;47.718;12.912;2022-07-09T06:00:48;9.73;;;5.13;;
41275;SDS011;27010;47.718;12.912;2022-07-09T06:03:50;13.63;;;5.80;;
41275;SDS011;27010;47.718;12.912;2022-07-09T06:06:52;11.50;;;5.00;;
41275;SDS011;27010;47.718;12.912;2022-07-09T06:09:54;8.43;;;4.63;;
41275;SDS011;27010;47.718;12.912;2022-07-09T06:12:56;4.80;;;2.77;;
41275;SDS011;27010;47.718;12.912;2022-07-09T06:15:58;3.33;;;2.40;;
41275;SDS011;27010;47.718;12.912;2022-07-09T06:19:00;5.40;;;2.30;;
41275;SDS011;27010;47.718;12.912;2022-07-09T06:22:02;5.07;;;1.90;;
41275;SDS011;27010;47.718;12.912;2022-07-09T06:25:05;2.73;;;1.97;;
41275;SDS011;27010;47.718;12.912;2022-07-09T06:28:08;4.27;;;2.10;;
41275;SDS011;27010;47.718;12.912;2022-07-09T06:31:10;5.10;;;1.87;;
41275;SDS011;27010;47.718;12.912;2022-07-09T06:34:12;3.87;;;1.93;;
41275;SDS011;27010;47.718;12.912;2022-07-09T06:37:14;9.40;;;2.60;;
41275;SDS011;27010;47.718;12.912;2022-07-09T06:40:16;4.13;;;1.77;;
41275;SDS011;27010;47.718;12.912;2022-07-09T06:43:18;2.50;;;1.70;;
41275;SDS011;27010;47.718;12.912;2022-07-09T06:46:20;3.83;;;1.70;;
41275;SDS011;27010;47.718;12.912;2022-07-09T06:49:22;4.80;;;1.53;;
41275;SDS011;27010;47.718;12.912;2022-07-09T06:52:24;3.47;;;2.30;;
41275;SDS011;27010;47.718;12.912;2022-07-09T06:55:26;5.70;;;1.63;;
41275;SDS011;27010;47.718;12.912;2022-07-09T06:58:29;2.70;;;1.50;;
41275;SDS011;27010;47.718;12.912;2022-07-09T07:01:31;4.70;;;1.70;;
41275;SDS011;27010;47.718;12.912;2022-07-09T07:04:33;3.60;;;1.70;;
41275;SDS011;27010;47.718;12.912;2022-07-09T07:07:35;2.93;;;1.17;;
41275;SDS011;27010;47.718;12.912;2022-07-09T07:10:37;3.40;;;1.37;;
41275;SDS011;27010;47.718;12.912;2022-07-09T07:13:43;3.27;;;1.50;;
41275;SDS011;27010;47.718;12.912;2022-07-09T07:16:45;2.77;;;1.60;;
41275;SDS011;27010;47.718;12.912;2022-07-09T07:19:47;3.93;;;1.53;;
41275;SDS011;27010;47.718;12.912;2022-07-09T07:22:49;5.67;;;1.43;;
41275;SDS011;27010;47.718;12.912;2022-07-09T07:25:51;2.23;;;1.50;;
41275;SDS011;27010;47.718;12.912;2022-07-09T07:28:54;2.27;;;1.43;;
41275;SDS011;27010;47.718;12.912;2022-07-09T07:31:56;3.67;;;1.47;;
41275;SDS011;27010;47.718;12.912;2022-07-09T07:34:59;1.83;;;1.60;;
41275;SDS011;27010;47.718;12.912;2022-07-09T07:38:04;7.57;;;1.93;;
41275;SDS011;27010;47.718;12.912;2022-07-09T07:41:06;3.63;;;1.67;;
41275;SDS011;27010;47.718;12.912;2022-07-09T07:44:08;3.17;;;1.60;;
41275;SDS011;27010;47.718;12.912;2022-07-09T07:47:10;4.10;;;1.57;;
41275;SDS011;27010;47.718;12.912;2022-07-09T07:50:12;5.27;;;2.13;;
41275;SDS011;27010;47.718;12.912;2022-07-09T07:53:14;2.57;;;1.70;;
41275;SDS011;27010;47.718;12.912;2022-07-09T07:56:16;3.27;;;1.60;;
41275;SDS011;27010;47.718;12.912;2022-07-09T07:59:19;1.93;;;1.60;;
41275;SDS011;27010;47.718;12.912;2022-07-09T08:02:21;4.40;;;1.73;;
41275;SDS011;27010;47.718;12.912;2022-07-09T08:05:23;4.00;;;1.57;;
41275;SDS011;27010;47.718;12.912;2022-07-09T08:08:27;4.33;;;1.70;;
41275;SDS011;27010;47.718;12.912;2022-07-09T08:11:29;4.17;;;1.30;;
41275;SDS011;27010;47.718;12.912;2022-07-09T08:14:31;3.20;;;1.40;;
41275;SDS011;27010;47.718;12.912;2022-07-09T08:17:33;3.53;;;1.87;;
41275;SDS011;27010;47.718;12.912;2022-07-09T08:20:36;6.33;;;1.90;;
41275;SDS011;27010;47.718;12.912;2022-07-09T08:23:38;3.67;;;1.73;;
41275;SDS011;27010;47.718;12.912;2022-07-09T08:27:01;4.70;;;1.47;;
41275;SDS011;27010;47.718;12.912;2022-07-09T08:30:03;2.83;;;1.27;;
41275;SDS011;27010;47.718;12.912;2022-07-09T08:33:05;2.23;;;1.50;;
41275;SDS011;27010;47.718;12.912;2022-07-09T08:36:14;3.40;;;1.30;;
41275;SDS011;27010;47.718;12.912;2022-07-09T08:39:16;2.07;;;1.13;;
41275;SDS011;27010;47.718;12.912;2022-07-09T08:42:18;2.53;;;1.40;;
41275;SDS011;27010;47.718;12.912;2022-07-09T08:45:21;3.30;;;1.40;;
41275;SDS011;27010;47.718;12.912;2022-07-09T08:48:25;4.53;;;1.57;;
41275;SDS011;27010;47.718;12.912;2022-07-09T08:51:27;1.80;;;1.10;;
41275;SDS011;27010;47.718;12.912;2022-07-09T08:54:30;1.80;;;1.00;;
41275;SDS011;27010;47.718;12.912;2022-07-09T08:57:33;2.33;;;1.30;;
41275;SDS011;27010;47.718;12.912;2022-07-09T09:00:35;1.92;;;1.10;;
41275;SDS011;27010;47.718;12.912;2022-07-09T09:03:37;3.45;;;1.30;;
41275;SDS011;27010;47.718;12.912;2022-07-09T09:06:39;1.83;;;1.20;;
41275;SDS011;27010;47.718;12.912;2022-07-09T09:09:44;3.25;;;1.35;;
41275;SDS011;27010;47.718;12.912;2022-07-09T09:12:47;9.80;;;5.45;;
41275;SDS011;27010;47.718;12.912;2022-07-09T09:15:49;10.45;;;5.88;;
41275;SDS011;27010;47.718;12.912;2022-07-09T09:18:53;2.95;;;2.22;;
41275;SDS011;27010;47.718;12.912;2022-07-09T09:21:55;6.05;;;2.25;;
41275;SDS011;27010;47.718;12.912;2022-07-09T09:24:57;2.65;;;1.92;;
41275;SDS011;27010;47.718;12.912;2022-07-09T09:27:59;4.95;;;1.40;;
41275;SDS011;27010;47.718;12.912;2022-07-09T09:31:02;3.15;;;1.75;;
41275;SDS011;27010;47.718;12.912;2022-07-09T09:37:13;3.15;;;1.50;;
41275;SDS011;27010;47.718;12.912;2022-07-09T09:40:16;6.82;;;1.33;;
41275;SDS011;27010;47.718;12.912;2022-07-09T09:43:18;1.88;;;0.70;;
41275;SDS011;27010;47.718;12.912;2022-07-09T09:46:22;3.20;;;1.40;;
41275;SDS011;27010;47.718;12.912;2022-07-09T09:49:24;2.28;;;1.20;;
41275;SDS011;27010;47.718;12.912;2022-07-09T09:52:27;1.95;;;1.15;;
41275;SDS011;27010;47.718;12.912;2022-07-09T09:55:31;2.70;;;1.20;;
41275;SDS011;27010;47.718;12.912;2022-07-09T09:58:33;1.80;;;1.10;;
41275;SDS011;27010;47.718;12.912;2022-07-09T10:01:36;3.97;;;1.30;;
41275;SDS011;27010;47.718;12.912;2022-07-09T10:04:40;3.92;;;1.17;;
41275;SDS011;27010;47.718;12.912;2022-07-09T10:07:45;2.65;;;0.75;;
41275;SDS011;27010;47.718;12.912;2022-07-09T10:10:50;3.22;;;1.00;;
41275;SDS011;27010;47.718;12.912;2022-07-09T10:13:54;3.38;;;1.15;;
41275;SDS011;27010;47.718;12.912;2022-07-09T10:20:42;4.75;;;1.33;;
41275;SDS011;27010;47.718;12.912;2022-07-09T10:23:48;2.85;;;1.02;;
41275;SDS011;27010;47.718;12.912;2022-07-09T10:26:54;2.22;;;0.90;;
41275;SDS011;27010;47.718;12.912;2022-07-09T10:30:07;2.80;;;1.02;;
41275;SDS011;27010;47.718;12.912;2022-07-09T10:33:10;2.33;;;0.90;;
41275;SDS011;27010;47.718;12.912;2022-07-09T10:36:14;3.05;;;1.00;;
41275;SDS011;27010;47.718;12.912;2022-07-09T10:39:17;3.47;;;1.13;;
41275;SDS011;27010;47.718;12.912;2022-07-09T10:42:21;2.40;;;1.10;;
41275;SDS011;27010;47.718;12.912;2022-07-09T10:45:47;3.92;;;1.10;;
41275;SDS011;27010;47.718;12.912;2022-07-09T10:48:47;1.40;;;0.90;;
41275;SDS011;27010;47.718;12.912;2022-07-09T10:51:49;2.03;;;1.00;;
41275;SDS011;27010;47.718;12.912;2022-07-09T10:54:51;2.58;;;0.80;;
41275;SDS011;27010;47.718;12.912;2022-07-09T10:57:54;4.68;;;1.08;;
41275;SDS011;27010;47.718;12.912;2022-07-09T11:01:00;3.72;;;1.40;;
41275;SDS011;27010;47.718;12.912;2022-07-09T11:04:05;2.97;;;0.88;;
41275;SDS011;27010;47.718;12.912;2022-07-09T11:07:07;2.40;;;0.88;;
41275;SDS011;27010;47.718;12.912;2022-07-09T11:10:09;2.28;;;1.10;;
41275;SDS011;27010;47.718;12.912;2022-07-09T11:13:24;1.55;;;1.00;;
41275;SDS011;27010;47.718;12.912;2022-07-09T11:16:30;1.42;;;1.13;;
41275;SDS011;27010;47.718;12.912;2022-07-09T11:19:32;1.90;;;0.98;;
41275;SDS011;27010;47.718;12.912;2022-07-09T11:22:34;3.50;;;1.00;;
41275;SDS011;27010;47.718;12.912;2022-07-09T11:25:36;3.03;;;1.17;;
41275;SDS011;27010;47.718;12.912;2022-07-09T11:28:38;1.48;;;0.77;;
41275;SDS011;27010;47.718;12.912;2022-07-09T11:31:50;2.08;;;1.00;;
41275;SDS011;27010;47.718;12.912;2022-07-09T11:34:53;1.02;;;0.65;;
41275;SDS011;27010;47.718;12.912;2022-07-09T11:37:55;2.58;;;1.23;;
41275;SDS011;27010;47.718;12.912;2022-07-09T11:40:59;1.48;;;0.80;;
41275;SDS011;27010;47.718;12.912;2022-07-09T11:44:02;1.73;;;0.80;;
41275;SDS011;27010;47.718;12.912;2022-07-09T11:47:12;5.45;;;1.23;;
41275;SDS011;27010;47.718;12.912;2022-07-09T11:50:19;4.38;;;1.23;;
41275;SDS011;27010;47.718;12.912;2022-07-09T11:53:22;1.70;;;1.08;;
41275;SDS011;27010;47.718;12.912;2022-07-09T11:56:26;3.40;;;0.98;;
41275;SDS011;27010;47.718;12.912;2022-07-09T11:59:29;2.22;;;1.10;;
41275;SDS011;27010;47.718;12.912;2022-07-09T12:02:36;2.45;;;0.98;;
41275;SDS011;27010;47.718;12.912;2022-07-09T12:05:39;3.45;;;1.33;;
41275;SDS011;27010;47.718;12.912;2022-07-09T12:08:41;3.55;;;1.02;;
41275;SDS011;27010;47.718;12.912;2022-07-09T12:11:43;2.90;;;1.00;;
41275;SDS011;27010;47.718;12.912;2022-07-09T12:14:45;1.60;;;0.75;;
41275;SDS011;27010;47.718;12.912;2022-07-09T12:17:50;2.03;;;0.73;;
41275;SDS011;27010;47.718;12.912;2022-07-09T12:20:56;3.22;;;1.27;;
41275;SDS011;27010;47.718;12.912;2022-07-09T12:23:58;1.40;;;0.90;;
41275;SDS011;27010;47.718;12.912;2022-07-09T12:27:00;3.70;;;1.00;;
41275;SDS011;27010;47.718;12.912;2022-07-09T12:30:23;1.98;;;0.90;;
41275;SDS011;27010;47.718;12.912;2022-07-09T12:33:25;1.52;;;0.70;;
41275;SDS011;27010;47.718;12.912;2022-07-09T12:36:27;1.58;;;0.90;;
41275;SDS011;27010;47.718;12.912;2022-07-09T12:39:48;2.25;;;0.90;;
41275;SDS011;27010;47.718;12.912;2022-07-09T12:42:52;1.83;;;0.68;;
41275;SDS011;27010;47.718;12.912;2022-07-09T12:45:54;3.35;;;0.85;;
41275;SDS011;27010;47.718;12.912;2022-07-09T12:48:56;3.00;;;0.90;;
41275;SDS011;27010;47.718;12.912;2022-07-09T12:51:58;2.78;;;0.77;;
41275;SDS011;27010;47.718;12.912;2022-07-09T12:55:00;2.50;;;0.82;;
41275;SDS011;27010;47.718;12.912;2022-07-09T12:58:04;1.83;;;0.60;;
41275;SDS011;27010;47.718;12.912;2022-07-09T13:01:06;1.65;;;0.70;;
41275;SDS011;27010;47.718;12.912;2022-07-09T13:04:08;3.35;;;0.93;;
41275;SDS011;27010;47.718;12.912;2022-07-09T13:07:13;1.10;;;0.57;;
41275;SDS011;27010;47.718;12.912;2022-07-09T13:10:15;1.52;;;0.60;;
41275;SDS011;27010;47.718;12.912;2022-07-09T13:13:17;1.23;;;0.75;;
41275;SDS011;27010;47.718;12.912;2022-07-09T13:16:19;1.30;;;0.70;;
41275;SDS011;27010;47.718;12.912;2022-07-09T13:19:23;1.65;;;0.80;;
41275;SDS011;27010;47.718;12.912;2022-07-09T13:22:25;1.75;;;0.70;;
41275;SDS011;27010;47.718;12.912;2022-07-09T13:25:28;2.50;;;0.50;;
41275;SDS011;27010;47.718;12.912;2022-07-09T13:28:30;1.33;;;0.60;;
41275;SDS011;27010;47.718;12.912;2022-07-09T13:31:33;1.20;;;0.45;;
41275;SDS011;27010;47.718;12.912;2022-07-09T13:34:35;2.75;;;0.90;;
41275;SDS011;27010;47.718;12.912;2022-07-09T13:37:38;1.52;;;0.60;;
41275;SDS011;27010;47.718;12.912;2022-07-09T13:40:40;0.82;;;0.40;;
41275;SDS011;27010;47.718;12.912;2022-07-09T13:43:43;1.88;;;0.50;;
41275;SDS011;27010;47.718;12.912;2022-07-09T13:46:48;1.58;;;0.50;;
41275;SDS011;27010;47.718;12.912;2022-07-09T13:49:50;3.15;;;0.90;;
41275;SDS011;27010;47.718;12.912;2022-07-09T13:52:52;1.83;;;0.57;;
41275;SDS011;27010;47.718;12.912;2022-07-09T13:55:54;2.38;;;0.73;;
41275;SDS011;27010;47.718;12.912;2022-07-09T13:58:57;0.77;;;0.45;;
41275;SDS011;27010;47.718;12.912;2022-07-09T14:01:59;3.03;;;0.90;;
41275;SDS011;27010;47.718;12.912;2022-07-09T14:05:01;0.95;;;0.60;;
41275;SDS011;27010;47.718;12.912;2022-07-09T14:08:04;1.80;;;0.68;;
41275;SDS011;27010;47.718;12.912;2022-07-09T14:11:07;1.98;;;0.75;;
41275;SDS011;27010;47.718;12.912;2022-07-09T14:14:09;2.10;;;0.68;;
41275;SDS011;27010;47.718;12.912;2022-07-09T14:17:11;1.60;;;0.50;;
41275;SDS011;27010;47.718;12.912;2022-07-09T14:20:13;1.00;;;0.70;;
41275;SDS011;27010;47.718;12.912;2022-07-09T14:23:15;2.13;;;0.63;;
41275;SDS011;27010;47.718;12.912;2022-07-09T14:26:17;1.33;;;0.68;;
41275;SDS011;27010;47.718;12.912;2022-07-09T14:29:19;2.13;;;0.85;;
41275;SDS011;27010;47.718;12.912;2022-07-09T14:32:24;0.95;;;0.50;;
41275;SDS011;27010;47.718;12.912;2022-07-09T14:35:26;1.88;;;0.52;;
41275;SDS011;27010;47.718;12.912;2022-07-09T14:38:28;1.10;;;0.70;;
41275;SDS011;27010;47.718;12.912;2022-07-09T14:41:30;2.00;;;0.68;;
41275;SDS011;27010;47.718;12.912;2022-07-09T14:44:32;2.10;;;0.70;;
41275;SDS011;27010;47.718;12.912;2022-07-09T14:47:35;1.23;;;0.60;;
41275;SDS011;27010;47.718;12.912;2022-07-09T14:50:38;2.40;;;1.00;;
41275;SDS011;27010;47.718;12.912;2022-07-09T14:53:40;0.73;;;0.50;;
41275;SDS011;27010;47.718;12.912;2022-07-09T14:56:44;1.25;;;0.90;;
41275;SDS011;27010;47.718;12.912;2022-07-09T14:59:46;2.33;;;0.60;;
41275;SDS011;27010;47.718;12.912;2022-07-09T15:02:49;0.50;;;0.40;;
41275;SDS011;27010;47.718;12.912;2022-07-09T15:05:51;0.93;;;0.40;;
41275;SDS011;27010;47.718;12.912;2022-07-09T15:08:53;2.13;;;0.47;;
41275;SDS011;27010;47.718;12.912;2022-07-09T15:11:55;0.88;;;0.55;;
41275;SDS011;27010;47.718;12.912;2022-07-09T15:14:57;1.85;;;0.50;;
41275;SDS011;27010;47.718;12.912;2022-07-09T15:18:00;1.10;;;0.60;;
41275;SDS011;27010;47.718;12.912;2022-07-09T15:21:03;1.33;;;0.65;;
41275;SDS011;27010;47.718;12.912;2022-07-09T15:24:06;5.43;;;0.90;;
41275;SDS011;27010;47.718;12.912;2022-07-09T15:27:08;1.27;;;0.70;;
41275;SDS011;27010;47.718;12.912;2022-07-09T15:30:10;0.43;;;0.40;;
41275;SDS011;27010;47.718;12.912;2022-07-09T15:33:13;2.40;;;0.88;;
41275;SDS011;27010;47.718;12.912;2022-07-09T15:36:17;1.20;;;0.75;;
41275;SDS011;27010;47.718;12.912;2022-07-09T15:39:20;2.05;;;0.60;;
41275;SDS011;27010;47.718;12.912;2022-07-09T15:42:21;1.70;;;0.63;;
41275;SDS011;27010;47.718;12.912;2022-07-09T15:45:23;1.20;;;0.63;;
41275;SDS011;27010;47.718;12.912;2022-07-09T15:48:25;3.35;;;0.82;;
41275;SDS011;27010;47.718;12.912;2022-07-09T15:51:27;1.63;;;0.60;;
41275;SDS011;27010;47.718;12.912;2022-07-09T15:54:29;1.92;;;0.93;;
41275;SDS011;27010;47.718;12.912;2022-07-09T15:57:32;1.67;;;0.63;;
41275;SDS011;27010;47.718;12.912;2022-07-09T16:00:34;3.25;;;1.00;;
41275;SDS011;27010;47.718;12.912;2022-07-09T16:03:37;0.98;;;0.52;;
41275;SDS011;27010;47.718;12.912;2022-07-09T16:06:39;1.48;;;0.70;;
41275;SDS011;27010;47.718;12.912;2022-07-09T16:09:41;1.55;;;0.65;;
41275;SDS011;27010;47.718;12.912;2022-07-09T16:12:43;1.15;;;0.70;;
41275;SDS011;27010;47.718;12.912;2022-07-09T16:15:51;3.35;;;0.93;;
41275;SDS011;27010;47.718;12.912;2022-07-09T16:18:53;3.10;;;0.90;;
41275;SDS011;27010;47.718;12.912;2022-07-09T16:21:55;1.98;;;0.80;;
41275;SDS011;27010;47.718;12.912;2022-07-09T16:24:57;4.53;;;1.92;;
41275;SDS011;27010;47.718;12.912;2022-07-09T16:27:59;3.55;;;2.53;;
41275;SDS011;27010;47.718;12.912;2022-07-09T16:31:01;3.20;;;2.22;;
41275;SDS011;27010;47.718;12.912;2022-07-09T16:34:03;2.83;;;1.88;;
41275;SDS011;27010;47.718;12.912;2022-07-09T16:37:05;4.63;;;2.85;;
41275;SDS011;27010;47.718;12.912;2022-07-09T16:40:07;2.92;;;1.80;;
41275;SDS011;27010;47.718;12.912;2022-07-09T16:43:10;7.35;;;2.95;;
41275;SDS011;27010;47.718;12.912;2022-07-09T16:46:12;6.03;;;3.67;;
41275;SDS011;27010;47.718;12.912;2022-07-09T16:49:14;4.38;;;2.40;;
41275;SDS011;27010;47.718;12.912;2022-07-09T16:52:16;3.60;;;2.15;;
41275;SDS011;27010;47.718;12.912;2022-07-09T16:55:18;2.72;;;1.23;;
41275;SDS011;27010;47.718;12.912;2022-07-09T16:58:21;1.83;;;1.17;;
41275;SDS011;27010;47.718;12.912;2022-07-09T17:01:23;3.60;;;0.80;;
41275;SDS011;27010;47.718;12.912;2022-07-09T17:04:25;3.00;;;0.82;;
41275;SDS011;27010;47.718;12.912;2022-07-09T17:07:27;1.63;;;0.85;;
41275;SDS011;27010;47.718;12.912;2022-07-09T17:10:29;2.63;;;0.60;;
41275;SDS011;27010;47.718;12.912;2022-07-09T17:13:31;1.63;;;0.93;;
41275;SDS011;27010;47.718;12.912;2022-07-09T17:16:34;3.45;;;0.77;;
41275;SDS011;27010;47.718;12.912;2022-07-09T17:19:36;6.05;;;3.53;;
41275;SDS011;27010;47.718;12.912;2022-07-09T17:22:38;4.55;;;2.67;;
41275;SDS011;27010;47.718;12.912;2022-07-09T17:25:40;3.28;;;1.95;;
41275;SDS011;27010;47.718;12.912;2022-07-09T17:28:42;2.45;;;1.42;;
41275;SDS011;27010;47.718;12.912;2022-07-09T17:31:44;3.92;;;1.40;;
41275;SDS011;27010;47.718;12.912;2022-07-09T17:34:46;3.00;;;0.90;;
41275;SDS011;27010;47.718;12.912;2022-07-09T17:37:48;1.55;;;1.10;;
41275;SDS011;27010;47.718;12.912;2022-07-09T17:40:51;1.75;;;1.15;;
41275;SDS011;27010;47.718;12.912;2022-07-09T17:43:53;2.17;;;0.90;;
41275;SDS011;27010;47.718;12.912;2022-07-09T17:46:55;2.58;;;1.08;;
41275;SDS011;27010;47.718;12.912;2022-07-09T17:49:57;2.55;;;1.13;;
41275;SDS011;27010;47.718;12.912;2022-07-09T17:52:59;1.63;;;0.80;;
41275;SDS011;27010;47.718;12.912;2022-07-09T17:56:01;1.55;;;1.02;;
41275;SDS011;27010;47.718;12.912;2022-07-09T17:59:04;1.60;;;0.95;;
41275;SDS011;27010;47.718;12.912;2022-07-09T18:02:06;1.85;;;1.08;;
41275;SDS011;27010;47.718;12.912;2022-07-09T18:05:08;4.10;;;1.00;;
41275;SDS011;27010;47.718;12.912;2022-07-09T18:08:11;2.67;;;0.88;;
41275;SDS011;27010;47.718;12.912;2022-07-09T18:11:13;5.13;;;1.77;;